Time;durP1;ratioP1;P1;durP2;ratioP2;P2;SDS_P1;SDS_P2;PMS_P1;PMS_P2;Temp;Humidity;BMP_temperature;BMP_pressure;BME280_temperature;BME280_humidity;BME280_pressure;Samples;Min_cycle;Max_cycle;Signal;HPM_P1;HPM_P2
2021/01/03 00:01:55;;;;;;;;;;;4.10;73.90;;;;;;4920002;28;19932;-46
2021/01/03 00:04:21;;;;;;;;;;;4.10;74.00;;;;;;4904277;28;19934;-44
2021/01/03 00:06:51;;;;;;;;;;;4.10;73.90;;;;;;4907430;28;20016;-46
2021/01/03 00:09:17;;;;;;;;;;;4.10;73.90;;;;;;4909664;28;19930;-45
2021/01/03 00:11:44;;;;;;;;;;;4.10;73.70;;;;;;4903790;28;20465;-45
2021/01/03 00:14:10;;;;;;;;;;;4.10;73.20;;;;;;4907092;28;20895;-47
2021/01/03 00:16:36;;;;;;;;;;;4.10;73.20;;;;;;4895115;28;20378;-44
2021/01/03 00:19:04;;;;;;;;;;;4.10;73.50;;;;;;4906428;28;20004;-42
2021/01/03 00:21:31;;;;;;;;;;;4.10;73.50;;;;;;4907135;28;19926;-43
2021/01/03 00:23:57;;;;;;;;;;;4.20;73.40;;;;;;4904373;28;20442;-46
2021/01/03 00:26:23;;;;;;;;;;;4.20;73.30;;;;;;4904352;28;19976;-43
2021/01/03 00:28:49;;;;;;;;;;;4.20;73.40;;;;;;4904024;28;19929;-46
2021/01/03 00:31:19;;;;;;;;;;;4.20;73.20;;;;;;4903618;28;20260;-43
2021/01/03 00:33:45;;;;;;;;;;;4.20;73.20;;;;;;4907298;28;19941;-46
2021/01/03 00:36:12;;;;;;;;;;;4.20;73.20;;;;;;4905747;28;20303;-43
2021/01/03 00:38:38;;;;;;;;;;;4.20;73.10;;;;;;4910950;28;19977;-45
2021/01/03 00:41:04;;;;;;;;;;;4.20;73.00;;;;;;4902206;28;20406;-46
2021/01/03 00:43:31;;;;;;;;;;;4.20;73.00;;;;;;4906861;28;19926;-42
2021/01/03 00:45:57;;;;;;;;;;;4.30;72.90;;;;;;4902925;28;19940;-45
2021/01/03 00:48:23;;;;;;;;;;;4.20;73.00;;;;;;4911351;28;19926;-42
2021/01/03 00:50:50;;;;;;;;;;;4.30;72.90;;;;;;4910394;28;23346;-45
2021/01/03 00:53:16;;;;;;;;;;;4.30;72.90;;;;;;4907001;28;20359;-45
2021/01/03 00:55:42;;;;;;;;;;;4.30;72.80;;;;;;4913404;28;19933;-47
2021/01/03 00:58:09;;;;;;;;;;;4.30;72.70;;;;;;4913891;28;19930;-43
2021/01/03 01:00:36;;;;;;;;;;;4.20;72.60;;;;;;4903212;28;20534;-45
2021/01/03 01:03:04;;;;;;;;;;;4.20;72.80;;;;;;4895159;28;20969;-44
2021/01/03 01:05:30;;;;;;;;;;;4.30;72.80;;;;;;4904298;28;19930;-46
2021/01/03 01:07:57;;;;;;;;;;;4.30;72.60;;;;;;4905253;28;19926;-44
2021/01/03 01:10:24;;;;;;;;;;;4.30;72.40;;;;;;4906390;28;19938;-44
2021/01/03 01:12:51;;;;;;;;;;;4.30;72.70;;;;;;4904439;28;19926;-43
2021/01/03 01:15:18;;;;;;;;;;;4.30;72.60;;;;;;4908391;28;19926;-42
2021/01/03 01:17:49;;;;;;;;;;;4.30;72.70;;;;;;4908830;28;19933;-44
2021/01/03 01:20:17;;;;;;;;;;;4.30;72.80;;;;;;4909849;28;20013;-45
2021/01/03 01:22:44;;;;;;;;;;;4.30;72.80;;;;;;4916252;28;20306;-45
2021/01/03 01:25:11;;;;;;;;;;;4.30;72.70;;;;;;4908601;28;19927;-42
2021/01/03 01:27:37;;;;;;;;;;;4.30;72.90;;;;;;4927418;28;19934;-44
2021/01/03 01:30:05;;;;;;;;;;;4.30;72.70;;;;;;4912227;28;19930;-43
2021/01/03 01:32:31;;;;;;;;;;;4.30;72.70;;;;;;4910417;28;19934;-45
2021/01/03 01:34:58;;;;;;;;;;;4.30;72.70;;;;;;4911581;28;19935;-43
2021/01/03 01:37:24;;;;;;;;;;;4.30;72.80;;;;;;4925219;28;20421;-46
2021/01/03 01:39:50;;;;;;;;;;;4.30;72.90;;;;;;4913072;28;19926;-45
2021/01/03 01:42:17;;;;;;;;;;;4.30;73.10;;;;;;4909447;28;20390;-46
2021/01/03 01:44:44;;;;;;;;;;;4.30;72.80;;;;;;4909686;28;27890;-45
2021/01/03 01:47:15;;;;;;;;;;;4.30;72.70;;;;;;4904895;28;19942;-45
2021/01/03 01:49:42;;;;;;;;;;;4.30;72.80;;;;;;4909467;28;20414;-45
2021/01/03 01:52:09;;;;;;;;;;;4.30;72.80;;;;;;4909128;28;19942;-45
2021/01/03 01:54:37;;;;;;;;;;;4.30;72.90;;;;;;4910628;28;20564;-45
2021/01/03 01:57:08;;;;;;;;;;;4.40;72.70;;;;;;4910710;28;19930;-45
2021/01/03 01:59:54;;;;;;;;;;;4.30;72.60;;;;;;4908038;28;19937;-46
2021/01/03 02:02:23;;;;;;;;;;;4.40;72.60;;;;;;4910571;28;19935;-45
2021/01/03 02:05:16;;;;;;;;;;;4.40;72.50;;;;;;4906765;28;19938;-45
2021/01/03 02:07:55;;;;;;;;;;;4.40;72.50;;;;;;4908972;28;20313;-45
2021/01/03 02:10:33;;;;;;;;;;;4.40;72.60;;;;;;4911060;28;19926;-46
2021/01/03 02:13:18;;;;;;;;;;;4.40;72.60;;;;;;4913711;28;20406;-46
2021/01/03 02:15:44;;;;;;;;;;;4.40;72.60;;;;;;4920846;28;19926;-46
2021/01/03 02:18:11;;;;;;;;;;;4.40;72.50;;;;;;4911114;28;20390;-41
2021/01/03 02:20:56;;;;;;;;;;;4.40;72.60;;;;;;4909421;28;19938;-46
2021/01/03 02:23:41;;;;;;;;;;;4.40;72.60;;;;;;4910427;28;19926;-45
2021/01/03 02:26:08;;;;;;;;;;;4.40;72.80;;;;;;4909509;28;19945;-45
2021/01/03 02:28:39;;;;;;;;;;;4.40;72.70;;;;;;4907603;28;20370;-45
2021/01/03 02:31:05;;;;;;;;;;;4.50;72.70;;;;;;4922532;28;19934;-45
2021/01/03 02:33:43;;;;;;;;;;;4.50;72.60;;;;;;4907459;28;19930;-45
2021/01/03 02:36:19;;;;;;;;;;;4.50;72.70;;;;;;4910411;28;19950;-45
2021/01/03 02:38:53;;;;;;;;;;;4.50;72.80;;;;;;4912633;28;20291;-45
2021/01/03 02:41:19;;;;;;;;;;;4.50;72.50;;;;;;4904771;28;19937;-47
2021/01/03 02:43:46;;;;;;;;;;;4.50;72.10;;;;;;4908865;28;20385;-46
2021/01/03 02:46:12;;;;;;;;;;;4.50;72.00;;;;;;4905962;28;19926;-43
2021/01/03 02:48:38;;;;;;;;;;;4.50;72.10;;;;;;4912605;28;19930;-45
2021/01/03 02:51:05;;;;;;;;;;;4.50;72.20;;;;;;4907785;28;19931;-45
2021/01/03 02:53:31;;;;;;;;;;;4.40;72.20;;;;;;4910109;28;19949;-44
2021/01/03 02:55:57;;;;;;;;;;;4.40;72.00;;;;;;4916616;28;20322;-43
2021/01/03 02:58:24;;;;;;;;;;;4.50;72.20;;;;;;4912982;28;19930;-45
2021/01/03 03:00:50;;;;;;;;;;;4.50;72.30;;;;;;4909137;28;19979;-42
2021/01/03 03:03:16;;;;;;;;;;;4.50;72.10;;;;;;4905026;28;19927;-46
2021/01/03 03:05:45;;;;;;;;;;;4.50;72.00;;;;;;4913533;28;20286;-47
2021/01/03 03:08:11;;;;;;;;;;;4.50;72.20;;;;;;4915293;28;19926;-45
2021/01/03 03:10:37;;;;;;;;;;;4.50;72.30;;;;;;4916051;28;19934;-46
2021/01/03 03:13:03;;;;;;;;;;;4.50;72.40;;;;;;4912862;28;20378;-47
2021/01/03 03:15:33;;;;;;;;;;;4.50;72.30;;;;;;4919320;28;20505;-45
2021/01/03 03:18:00;;;;;;;;;;;4.50;72.30;;;;;;4915364;28;19961;-44
2021/01/03 03:20:26;;;;;;;;;;;4.50;72.30;;;;;;4911534;28;20315;-45
2021/01/03 03:22:52;;;;;;;;;;;4.50;72.40;;;;;;4916428;28;19941;-47
2021/01/03 03:25:19;;;;;;;;;;;4.50;72.30;;;;;;4915870;28;19964;-45
2021/01/03 03:27:46;;;;;;;;;;;4.50;72.40;;;;;;4913657;28;19930;-46
2021/01/03 03:30:13;;;;;;;;;;;4.50;72.40;;;;;;4912205;28;19938;-44
2021/01/03 03:32:40;;;;;;;;;;;4.50;72.50;;;;;;4914942;28;20016;-45
2021/01/03 03:35:07;;;;;;;;;;;4.50;72.40;;;;;;4910173;28;19930;-44
2021/01/03 03:37:33;;;;;;;;;;;4.50;72.40;;;;;;4914500;28;20342;-45
2021/01/03 03:40:00;;;;;;;;;;;4.50;72.20;;;;;;4914199;28;19944;-45
2021/01/03 03:42:26;;;;;;;;;;;4.50;72.30;;;;;;4913908;28;19926;-44
2021/01/03 03:44:52;;;;;;;;;;;4.50;72.30;;;;;;4915279;28;19941;-44
2021/01/03 03:47:18;;;;;;;;;;;4.50;72.20;;;;;;4909073;28;19930;-44
2021/01/03 03:49:44;;;;;;;;;;;4.50;72.10;;;;;;4909955;28;19926;-44
2021/01/03 03:52:13;;;;;;;;;;;4.50;72.20;;;;;;4915228;28;19926;-45
2021/01/03 03:54:42;;;;;;;;;;;4.50;72.10;;;;;;4911733;28;19942;-46
2021/01/03 03:57:08;;;;;;;;;;;4.50;72.10;;;;;;4915251;28;21186;-45
2021/01/03 03:59:36;;;;;;;;;;;4.50;72.00;;;;;;4913955;28;19934;-45
2021/01/03 04:02:03;;;;;;;;;;;4.50;72.00;;;;;;4911809;28;19926;-44
2021/01/03 04:04:29;;;;;;;;;;;4.50;72.10;;;;;;4916975;28;20385;-46
2021/01/03 04:06:55;;;;;;;;;;;4.50;72.00;;;;;;4911753;28;19942;-45
2021/01/03 04:09:21;;;;;;;;;;;4.60;71.90;;;;;;4878683;28;20370;-46
2021/01/03 04:11:50;;;;;;;;;;;4.60;72.10;;;;;;4897038;28;19930;-47
2021/01/03 04:14:18;;;;;;;;;;;4.50;72.00;;;;;;4913817;28;19930;-46
2021/01/03 04:16:48;;;;;;;;;;;4.50;72.00;;;;;;4914497;28;20021;-46
2021/01/03 04:19:15;;;;;;;;;;;4.50;72.10;;;;;;4909558;28;20387;-46
2021/01/03 04:21:41;;;;;;;;;;;4.50;72.00;;;;;;4926179;28;20518;-46
2021/01/03 04:24:08;;;;;;;;;;;4.50;71.80;;;;;;4914873;28;20012;-45
2021/01/03 04:26:42;;;;;;;;;;;4.50;71.80;;;;;;4913880;28;20355;-45
2021/01/03 04:29:08;;;;;;;;;;;4.50;71.40;;;;;;4907863;28;19926;-45
2021/01/03 04:31:35;;;;;;;;;;;4.50;71.60;;;;;;4920565;28;19934;-44
2021/01/03 04:34:01;;;;;;;;;;;4.50;71.40;;;;;;4909477;28;20013;-47
2021/01/03 04:36:27;;;;;;;;;;;4.50;71.50;;;;;;4913154;28;20406;-44
2021/01/03 04:38:54;;;;;;;;;;;4.60;71.50;;;;;;4913453;28;20350;-43
2021/01/03 04:41:25;;;;;;;;;;;4.50;71.50;;;;;;4916287;28;19930;-46
2021/01/03 04:43:51;;;;;;;;;;;4.60;71.30;;;;;;4909859;28;20041;-45
2021/01/03 04:46:21;;;;;;;;;;;4.60;71.10;;;;;;4910969;28;19965;-44
2021/01/03 04:48:49;;;;;;;;;;;4.60;71.50;;;;;;4911767;28;22124;-46
2021/01/03 04:51:33;;;;;;;;;;;4.60;71.60;;;;;;4914771;28;19926;-42
2021/01/03 04:54:10;;;;;;;;;;;4.60;71.50;;;;;;4910857;28;20040;-42
2021/01/03 04:56:39;;;;;;;;;;;4.60;71.70;;;;;;4914528;28;19937;-45
2021/01/03 04:59:24;;;;;;;;;;;4.60;71.90;;;;;;4905125;28;19933;-45
2021/01/03 05:02:09;;;;;;;;;;;4.60;72.00;;;;;;4912017;28;19930;-43
2021/01/03 05:04:42;;;;;;;;;;;4.60;71.70;;;;;;4910803;28;19937;-47
2021/01/03 05:07:12;;;;;;;;;;;4.60;71.70;;;;;;4910334;28;19937;-44
2021/01/03 05:09:39;;;;;;;;;;;4.60;71.80;;;;;;4913691;28;19936;-44
2021/01/03 05:12:14;;;;;;;;;;;4.60;72.00;;;;;;4908856;28;20417;-44
2021/01/03 05:14:53;;;;;;;;;;;4.60;71.70;;;;;;4915025;28;19933;-46
2021/01/03 05:17:20;;;;;;;;;;;4.60;71.90;;;;;;4912593;28;20297;-43
2021/01/03 05:19:48;;;;;;;;;;;4.60;72.00;;;;;;4910336;28;19926;-45
2021/01/03 05:22:29;;;;;;;;;;;4.60;72.00;;;;;;4915316;28;20403;-44
2021/01/03 05:24:57;;;;;;;;;;;4.60;72.20;;;;;;4911734;28;19934;-46
2021/01/03 05:27:23;;;;;;;;;;;4.60;72.30;;;;;;4912844;28;24640;-43
2021/01/03 05:29:50;;;;;;;;;;;4.60;72.30;;;;;;4904592;28;19931;-45
2021/01/03 05:32:28;;;;;;;;;;;4.60;72.10;;;;;;4913411;28;19965;-47
2021/01/03 05:34:55;;;;;;;;;;;4.60;72.30;;;;;;4911573;28;20149;-46
2021/01/03 05:37:24;;;;;;;;;;;4.60;72.10;;;;;;4913125;28;19926;-46
2021/01/03 05:39:51;;;;;;;;;;;4.60;72.30;;;;;;4907724;28;19953;-46
2021/01/03 05:42:18;;;;;;;;;;;4.60;72.00;;;;;;4925786;28;19933;-43
2021/01/03 05:44:56;;;;;;;;;;;4.60;72.30;;;;;;4910500;28;19926;-44
2021/01/03 05:47:26;;;;;;;;;;;4.60;72.40;;;;;;4914231;28;19926;-45
2021/01/03 05:50:11;;;;;;;;;;;4.60;72.40;;;;;;4912639;28;19932;-46
2021/01/03 05:53:00;;;;;;;;;;;4.60;72.40;;;;;;4912020;28;19934;-45
2021/01/03 05:55:28;;;;;;;;;;;4.60;72.00;;;;;;4902272;28;19926;-45
2021/01/03 05:58:04;;;;;;;;;;;4.60;72.10;;;;;;4910831;28;19937;-45
2021/01/03 06:00:30;;;;;;;;;;;4.60;72.20;;;;;;4911920;28;19926;-43
2021/01/03 06:03:10;;;;;;;;;;;4.60;72.00;;;;;;4911642;28;19940;-41
2021/01/03 06:05:41;;;;;;;;;;;4.60;71.80;;;;;;4905284;28;20302;-44
2021/01/03 06:08:11;;;;;;;;;;;4.60;71.80;;;;;;4910862;28;19927;-44
2021/01/03 06:10:40;;;;;;;;;;;4.60;71.90;;;;;;4911308;28;19945;-45
2021/01/03 06:13:09;;;;;;;;;;;4.60;71.80;;;;;;4907942;28;20319;-46
2021/01/03 06:15:38;;;;;;;;;;;4.60;72.00;;;;;;4893288;28;19940;-46
2021/01/03 06:18:11;;;;;;;;;;;4.60;72.00;;;;;;4913557;28;19926;-46
2021/01/03 06:20:37;;;;;;;;;;;4.60;72.10;;;;;;4904130;28;20194;-44
2021/01/03 06:23:10;;;;;;;;;;;4.50;72.10;;;;;;4901635;28;19927;-47
2021/01/03 06:25:42;;;;;;;;;;;4.60;72.20;;;;;;4905966;28;19926;-46
2021/01/03 06:28:18;;;;;;;;;;;4.50;72.10;;;;;;4923616;28;19992;-44
2021/01/03 06:30:49;;;;;;;;;;;4.50;72.30;;;;;;4910287;28;19934;-43
2021/01/03 06:33:34;;;;;;;;;;;4.50;72.10;;;;;;4909213;28;19938;-43
2021/01/03 06:36:11;;;;;;;;;;;4.50;72.20;;;;;;4912962;28;20376;-44
2021/01/03 06:39:12;;;;;;;;;;;4.60;72.30;;;;;;4909600;28;20016;-47
2021/01/03 06:41:42;;;;;;;;;;;4.60;72.30;;;;;;4838133;29;19935;-45
2021/01/03 06:44:11;;;;;;;;;;;4.50;71.70;;;;;;4900743;28;19941;-46
2021/01/03 06:47:01;;;;;;;;;;;4.50;72.10;;;;;;4932159;28;19971;-45
2021/01/03 06:49:46;;;;;;;;;;;4.50;72.00;;;;;;4923650;28;19929;-45
2021/01/03 06:52:46;;;;;;;;;;;4.50;71.90;;;;;;4913688;28;19933;-46
2021/01/03 06:55:31;;;;;;;;;;;4.50;72.00;;;;;;4894005;28;19926;-45
2021/01/03 06:57:59;;;;;;;;;;;4.50;72.00;;;;;;4917373;28;20321;-46
2021/01/03 07:00:34;;;;;;;;;;;4.50;72.20;;;;;;4916666;28;19944;-45
2021/01/03 07:03:12;;;;;;;;;;;4.60;72.30;;;;;;4915635;28;19940;-46
2021/01/03 07:05:48;;;;;;;;;;;4.60;72.50;;;;;;4919370;28;20011;-44
2021/01/03 07:08:15;;;;;;;;;;;4.60;72.50;;;;;;4917000;28;19937;-45
2021/01/03 07:10:42;;;;;;;;;;;4.60;72.70;;;;;;4913915;28;20809;-45
2021/01/03 07:13:24;;;;;;;;;;;4.50;72.80;;;;;;4915148;28;19926;-44
2021/01/03 07:15:51;;;;;;;;;;;4.50;73.10;;;;;;4915141;28;19937;-45
2021/01/03 07:18:23;;;;;;;;;;;4.50;73.20;;;;;;4915285;28;19990;-47
2021/01/03 07:20:56;;;;;;;;;;;4.60;72.90;;;;;;4910272;28;19970;-45
2021/01/03 07:23:34;;;;;;;;;;;4.50;72.80;;;;;;4912743;28;20366;-46
2021/01/03 07:26:04;;;;;;;;;;;4.60;73.00;;;;;;4926585;28;20294;-43
2021/01/03 07:28:31;;;;;;;;;;;4.60;73.00;;;;;;4915865;28;19930;-45
2021/01/03 07:31:00;;;;;;;;;;;4.60;73.10;;;;;;4912083;28;21265;-43
2021/01/03 07:33:33;;;;;;;;;;;4.50;73.00;;;;;;4912263;28;19937;-46
2021/01/03 07:36:14;;;;;;;;;;;4.50;73.00;;;;;;4917158;28;19930;-46
2021/01/03 07:38:40;;;;;;;;;;;4.60;73.10;;;;;;4917457;28;20363;-46
2021/01/03 07:41:07;;;;;;;;;;;4.60;73.10;;;;;;4917840;28;19934;-47
2021/01/03 07:43:52;;;;;;;;;;;4.60;73.20;;;;;;4906977;28;19934;-47
2021/01/03 07:46:39;;;;;;;;;;;4.60;73.20;;;;;;4913384;28;19932;-45
2021/01/03 07:49:23;;;;;;;;;;;4.60;73.20;;;;;;4917032;28;19934;-46
2021/01/03 07:51:49;;;;;;;;;;;4.50;73.30;;;;;;4910679;28;19934;-44
2021/01/03 07:54:16;;;;;;;;;;;4.50;73.50;;;;;;4909432;28;19945;-43
2021/01/03 07:56:44;;;;;;;;;;;4.50;73.60;;;;;;4900287;28;19934;-46
2021/01/03 07:59:10;;;;;;;;;;;4.50;73.80;;;;;;4911695;28;19934;-46
2021/01/03 08:01:41;;;;;;;;;;;4.50;73.80;;;;;;4913494;28;19934;-43
2021/01/03 08:04:11;;;;;;;;;;;4.50;73.80;;;;;;4912074;28;19934;-45
2021/01/03 08:06:38;;;;;;;;;;;4.50;73.60;;;;;;4910118;28;19941;-46
2021/01/03 08:09:04;;;;;;;;;;;4.60;73.60;;;;;;4929957;28;19932;-43
2021/01/03 08:11:33;;;;;;;;;;;4.60;73.70;;;;;;4915495;28;19937;-43
2021/01/03 08:14:02;;;;;;;;;;;4.60;73.80;;;;;;4915060;28;19933;-47
2021/01/03 08:16:29;;;;;;;;;;;4.60;74.00;;;;;;4916028;28;19937;-43
2021/01/03 08:19:03;;;;;;;;;;;4.60;74.00;;;;;;4915436;28;19956;-46
2021/01/03 08:21:31;;;;;;;;;;;4.60;74.00;;;;;;4911028;28;19933;-47
2021/01/03 08:24:11;;;;;;;;;;;4.60;74.20;;;;;;4912171;28;19956;-46
2021/01/03 08:26:40;;;;;;;;;;;4.60;74.20;;;;;;4927945;28;19926;-44
2021/01/03 08:29:25;;;;;;;;;;;4.60;74.30;;;;;;4912524;28;20302;-45
2021/01/03 08:31:53;;;;;;;;;;;4.70;74.30;;;;;;4915573;28;20020;-44
2021/01/03 08:34:22;;;;;;;;;;;4.70;74.40;;;;;;4912422;28;19934;-47
2021/01/03 08:36:49;;;;;;;;;;;4.70;74.40;;;;;;4905501;28;19937;-44
2021/01/03 08:39:17;;;;;;;;;;;4.70;74.40;;;;;;4913130;28;19933;-43
2021/01/03 08:42:02;;;;;;;;;;;4.70;74.40;;;;;;4912165;28;19935;-46
2021/01/03 08:44:34;;;;;;;;;;;4.70;74.30;;;;;;4916660;28;20465;-44
2021/01/03 08:47:07;;;;;;;;;;;4.70;74.20;;;;;;4913096;28;19937;-45
2021/01/03 08:49:33;;;;;;;;;;;4.80;74.00;;;;;;4913055;28;19953;-44
2021/01/03 08:52:09;;;;;;;;;;;4.80;74.00;;;;;;4913794;28;20001;-46
2021/01/03 08:54:38;;;;;;;;;;;4.70;73.80;;;;;;4911935;28;20395;-42
2021/01/03 08:57:05;;;;;;;;;;;4.70;73.90;;;;;;4912071;28;19931;-45
2021/01/03 08:59:32;;;;;;;;;;;4.70;74.10;;;;;;4912706;28;22381;-47
2021/01/03 09:01:59;;;;;;;;;;;4.70;74.10;;;;;;4906434;28;20429;-45
2021/01/03 09:04:26;;;;;;;;;;;4.80;74.10;;;;;;4916330;28;19941;-44
2021/01/03 09:06:59;;;;;;;;;;;4.80;74.10;;;;;;4913505;28;19933;-44
2021/01/03 09:09:28;;;;;;;;;;;4.80;74.10;;;;;;4914818;28;20064;-45
2021/01/03 09:11:57;;;;;;;;;;;4.80;73.90;;;;;;4913409;28;19926;-44
2021/01/03 09:14:29;;;;;;;;;;;4.90;74.00;;;;;;4925044;28;19938;-44
2021/01/03 09:16:59;;;;;;;;;;;4.90;74.10;;;;;;4908935;28;19957;-44
2021/01/03 09:19:31;;;;;;;;;;;4.90;74.20;;;;;;4909182;28;19934;-47
2021/01/03 09:22:00;;;;;;;;;;;4.90;74.20;;;;;;4913237;28;19926;-46
2021/01/03 09:24:28;;;;;;;;;;;5.00;74.10;;;;;;4914448;28;19926;-48
2021/01/03 09:26:55;;;;;;;;;;;5.00;74.20;;;;;;4912815;28;19927;-44
2021/01/03 09:29:23;;;;;;;;;;;5.00;74.30;;;;;;4906109;28;19926;-45
2021/01/03 09:31:57;;;;;;;;;;;5.00;74.00;;;;;;4913608;28;20416;-46
2021/01/03 09:34:27;;;;;;;;;;;5.00;73.90;;;;;;4910154;28;19926;-43
2021/01/03 09:36:57;;;;;;;;;;;5.00;73.90;;;;;;4910300;28;19926;-43
2021/01/03 09:39:46;;;;;;;;;;;5.10;74.00;;;;;;4911085;28;20390;-46
2021/01/03 09:42:12;;;;;;;;;;;5.10;74.00;;;;;;4908968;28;19930;-43
2021/01/03 09:44:44;;;;;;;;;;;5.00;74.10;;;;;;4912743;28;19934;-46
2021/01/03 09:47:13;;;;;;;;;;;5.00;74.20;;;;;;4909176;28;19930;-46
2021/01/03 09:49:48;;;;;;;;;;;5.10;74.00;;;;;;4909624;28;19933;-42
2021/01/03 09:52:17;;;;;;;;;;;5.10;73.90;;;;;;4907014;28;19926;-45
2021/01/03 09:54:49;;;;;;;;;;;5.10;73.90;;;;;;4910380;28;19926;-43
2021/01/03 09:57:24;;;;;;;;;;;5.10;73.90;;;;;;4907423;28;20474;-43
2021/01/03 09:59:55;;;;;;;;;;;5.20;73.60;;;;;;4913017;28;20384;-44
2021/01/03 10:02:24;;;;;;;;;;;5.10;73.80;;;;;;4908985;28;19940;-46
2021/01/03 10:04:51;;;;;;;;;;;5.10;73.80;;;;;;4907105;28;19937;-44
2021/01/03 10:07:20;;;;;;;;;;;5.10;73.90;;;;;;4910686;28;20072;-46
2021/01/03 10:09:52;;;;;;;;;;;5.20;73.80;;;;;;4907475;28;19969;-43
2021/01/03 10:12:25;;;;;;;;;;;5.20;73.90;;;;;;4907972;28;20879;-44
2021/01/03 10:15:09;;;;;;;;;;;5.20;73.80;;;;;;4909571;28;20613;-46
2021/01/03 10:17:36;;;;;;;;;;;5.20;74.00;;;;;;4907596;28;19940;-46
2021/01/03 10:20:17;;;;;;;;;;;5.20;73.90;;;;;;4905767;28;19935;-44
2021/01/03 10:22:44;;;;;;;;;;;5.20;74.00;;;;;;4908163;28;19947;-46
2021/01/03 10:25:17;;;;;;;;;;;5.20;73.80;;;;;;4898867;28;20410;-43
2021/01/03 10:28:04;;;;;;;;;;;5.20;73.90;;;;;;4915845;28;19934;-45
2021/01/03 10:30:31;;;;;;;;;;;5.20;74.10;;;;;;4905713;28;19934;-46
2021/01/03 10:32:57;;;;;;;;;;;5.20;73.90;;;;;;4906036;28;19933;-45
2021/01/03 10:35:23;;;;;;;;;;;5.20;73.80;;;;;;4909640;28;19937;-44
2021/01/03 10:37:50;;;;;;;;;;;5.20;73.80;;;;;;4908545;28;20019;-47
2021/01/03 10:40:17;;;;;;;;;;;5.20;73.90;;;;;;4898113;28;19930;-44
2021/01/03 10:42:43;;;;;;;;;;;5.30;73.90;;;;;;4905953;28;19930;-44
2021/01/03 10:45:09;;;;;;;;;;;5.30;73.80;;;;;;4908401;28;20359;-45
2021/01/03 10:47:38;;;;;;;;;;;5.30;73.90;;;;;;4903241;28;19937;-45
2021/01/03 10:50:05;;;;;;;;;;;5.30;73.80;;;;;;4903636;28;19934;-45
2021/01/03 10:52:31;;;;;;;;;;;5.30;74.00;;;;;;4905801;28;19926;-43
2021/01/03 10:54:58;;;;;;;;;;;5.30;74.00;;;;;;4913819;28;20397;-45
2021/01/03 10:57:24;;;;;;;;;;;5.30;74.10;;;;;;4907005;28;20301;-46
2021/01/03 10:59:51;;;;;;;;;;;5.30;74.20;;;;;;4920306;28;20010;-46
2021/01/03 11:02:17;;;;;;;;;;;5.30;74.30;;;;;;4904572;28;19933;-43
2021/01/03 11:04:43;;;;;;;;;;;5.40;74.50;;;;;;4912774;28;19932;-46
2021/01/03 11:07:10;;;;;;;;;;;5.40;74.70;;;;;;4909032;28;19938;-43
2021/01/03 11:09:36;;;;;;;;;;;5.40;75.00;;;;;;4902611;28;19932;-44
2021/01/03 11:12:05;;;;;;;;;;;5.40;75.30;;;;;;4905969;28;19926;-44
2021/01/03 11:14:31;;;;;;;;;;;5.40;75.90;;;;;;4903209;28;19941;-43
2021/01/03 11:16:57;;;;;;;;;;;5.40;76.10;;;;;;4902956;28;20017;-43
2021/01/03 11:19:23;;;;;;;;;;;5.40;76.40;;;;;;4910581;28;19926;-43
2021/01/03 11:22:00;;;;;;;;;;;5.40;76.50;;;;;;4914168;28;20626;-46
2021/01/03 11:24:27;;;;;;;;;;;5.40;76.50;;;;;;4921952;28;19934;-46
2021/01/03 11:26:54;;;;;;;;;;;5.40;76.60;;;;;;4902886;28;19936;-45
2021/01/03 11:29:23;;;;;;;;;;;5.50;76.70;;;;;;4915645;28;19977;-46
2021/01/03 11:31:51;;;;;;;;;;;5.50;76.70;;;;;;4912146;28;19951;-46
2021/01/03 11:34:19;;;;;;;;;;;5.40;76.80;;;;;;4913280;28;19930;-43
2021/01/03 11:36:46;;;;;;;;;;;5.40;76.80;;;;;;4910747;28;20353;-46
2021/01/03 11:39:13;;;;;;;;;;;5.40;76.60;;;;;;4914276;28;20128;-44
2021/01/03 11:41:40;;;;;;;;;;;5.40;76.60;;;;;;4917530;28;19931;-47
2021/01/03 11:44:06;;;;;;;;;;;5.40;76.80;;;;;;4915716;28;20542;-45
2021/01/03 11:46:33;;;;;;;;;;;5.40;76.80;;;;;;4915157;28;19934;-46
2021/01/03 11:48:59;;;;;;;;;;;5.40;76.70;;;;;;4913227;28;19965;-43
2021/01/03 11:51:26;;;;;;;;;;;5.40;76.70;;;;;;4917449;28;20408;-44
2021/01/03 11:53:52;;;;;;;;;;;5.40;76.60;;;;;;4911916;28;19934;-46
2021/01/03 11:56:19;;;;;;;;;;;5.40;76.50;;;;;;4911255;28;20464;-43
2021/01/03 11:58:46;;;;;;;;;;;5.40;76.30;;;;;;4912675;28;19930;-45
2021/01/03 12:01:20;;;;;;;;;;;5.50;76.20;;;;;;4918765;28;19926;-46
2021/01/03 12:03:47;;;;;;;;;;;5.50;76.30;;;;;;4914339;28;19934;-47
2021/01/03 12:06:15;;;;;;;;;;;5.40;76.30;;;;;;4914870;28;20351;-44
2021/01/03 12:08:45;;;;;;;;;;;5.40;76.20;;;;;;4915606;28;19941;-46
2021/01/03 12:11:18;;;;;;;;;;;5.40;75.90;;;;;;4914494;28;20382;-44
2021/01/03 12:13:51;;;;;;;;;;;5.50;75.80;;;;;;4912235;28;19934;-43
2021/01/03 12:16:19;;;;;;;;;;;5.50;75.90;;;;;;4914286;28;20064;-44
2021/01/03 12:18:45;;;;;;;;;;;5.50;76.00;;;;;;4914008;28;21493;-46
2021/01/03 12:21:19;;;;;;;;;;;5.50;76.10;;;;;;4914177;28;19930;-46
2021/01/03 12:23:45;;;;;;;;;;;5.40;76.10;;;;;;4923562;28;20387;-46
2021/01/03 12:26:11;;;;;;;;;;;5.40;76.10;;;;;;4919742;28;20032;-44
2021/01/03 12:28:37;;;;;;;;;;;5.50;76.20;;;;;;4915587;28;19927;-45
2021/01/03 12:31:05;;;;;;;;;;;5.40;76.30;;;;;;4906856;28;20078;-46
2021/01/03 12:33:31;;;;;;;;;;;5.50;76.30;;;;;;4910522;28;20367;-46
2021/01/03 12:35:58;;;;;;;;;;;5.40;76.40;;;;;;4918994;28;20344;-45
2021/01/03 12:38:26;;;;;;;;;;;5.40;76.50;;;;;;4911655;28;19933;-46
2021/01/03 12:40:53;;;;;;;;;;;5.40;76.60;;;;;;4913034;28;19941;-44
2021/01/03 12:43:19;;;;;;;;;;;5.40;76.60;;;;;;4906221;28;19934;-45
2021/01/03 12:45:46;;;;;;;;;;;5.40;76.70;;;;;;4916976;28;19934;-46
2021/01/03 12:48:12;;;;;;;;;;;5.40;76.80;;;;;;4911549;28;19930;-44
2021/01/03 12:50:39;;;;;;;;;;;5.40;76.90;;;;;;4908147;28;19934;-46
2021/01/03 12:53:05;;;;;;;;;;;5.40;77.10;;;;;;4911281;28;20911;-46
2021/01/03 12:55:32;;;;;;;;;;;5.40;77.30;;;;;;4911990;28;19926;-45
2021/01/03 12:57:58;;;;;;;;;;;5.30;77.60;;;;;;4911654;28;19930;-45
2021/01/03 13:00:24;;;;;;;;;;;5.40;77.70;;;;;;4909433;28;20267;-46
2021/01/03 13:02:51;;;;;;;;;;;5.40;77.70;;;;;;4909368;28;19952;-45
2021/01/03 13:05:18;;;;;;;;;;;5.40;77.80;;;;;;4912821;28;19933;-45
2021/01/03 13:07:44;;;;;;;;;;;5.40;77.90;;;;;;4921230;28;20017;-45
2021/01/03 13:10:11;;;;;;;;;;;5.30;78.10;;;;;;4901940;28;19940;-45
2021/01/03 13:12:40;;;;;;;;;;;5.30;78.10;;;;;;4909876;28;19941;-44
2021/01/03 13:15:08;;;;;;;;;;;5.30;78.20;;;;;;4904578;28;19926;-45
2021/01/03 13:17:34;;;;;;;;;;;5.30;78.30;;;;;;4928572;28;20382;-45
2021/01/03 13:20:00;;;;;;;;;;;5.30;78.50;;;;;;4909823;28;19934;-43
2021/01/03 13:22:29;;;;;;;;;;;5.30;78.60;;;;;;4907046;28;19938;-44
2021/01/03 13:24:55;;;;;;;;;;;5.30;78.70;;;;;;4906624;28;19934;-43
2021/01/03 13:27:22;;;;;;;;;;;5.30;78.80;;;;;;4915025;28;19965;-43
2021/01/03 13:29:48;;;;;;;;;;;5.30;78.80;;;;;;4906311;28;19941;-42
2021/01/03 13:32:14;;;;;;;;;;;5.30;78.70;;;;;;4904741;28;21010;-44
2021/01/03 13:34:40;;;;;;;;;;;5.30;78.60;;;;;;4916352;28;19930;-44
2021/01/03 13:37:07;;;;;;;;;;;5.30;78.50;;;;;;4916581;28;20373;-43
2021/01/03 13:39:33;;;;;;;;;;;5.30;78.60;;;;;;4907934;28;20043;-42
2021/01/03 13:42:00;;;;;;;;;;;5.30;78.70;;;;;;4891551;28;20068;-44
2021/01/03 13:44:26;;;;;;;;;;;5.20;78.80;;;;;;4910709;28;19926;-43
2021/01/03 13:46:53;;;;;;;;;;;5.30;78.90;;;;;;4926411;28;19941;-45
2021/01/03 13:49:22;;;;;;;;;;;5.20;78.90;;;;;;4907486;28;20367;-43
2021/01/03 13:51:48;;;;;;;;;;;5.20;79.00;;;;;;4908953;28;19926;-43
2021/01/03 13:54:16;;;;;;;;;;;5.20;79.00;;;;;;4911498;28;19930;-44
2021/01/03 13:56:42;;;;;;;;;;;5.20;79.10;;;;;;4911894;28;19981;-41
2021/01/03 13:59:08;;;;;;;;;;;5.20;79.10;;;;;;4910468;28;19969;-44
2021/01/03 14:01:35;;;;;;;;;;;5.20;79.30;;;;;;4901257;28;20911;-42
2021/01/03 14:04:03;;;;;;;;;;;5.10;79.10;;;;;;4906535;28;19935;-43
2021/01/03 14:06:29;;;;;;;;;;;5.10;79.10;;;;;;4914112;28;19930;-44
2021/01/03 14:08:56;;;;;;;;;;;5.10;79.40;;;;;;4910627;28;20435;-43
2021/01/03 14:11:25;;;;;;;;;;;5.10;79.50;;;;;;4908918;28;20028;-44
2021/01/03 14:13:52;;;;;;;;;;;5.20;79.40;;;;;;4918657;28;20061;-42
2021/01/03 14:16:30;;;;;;;;;;;5.10;79.60;;;;;;4911816;28;19926;-45
2021/01/03 14:18:57;;;;;;;;;;;5.20;79.60;;;;;;4908821;28;19934;-42
2021/01/03 14:21:25;;;;;;;;;;;5.10;79.80;;;;;;4905273;28;22542;-45
2021/01/03 14:23:51;;;;;;;;;;;5.10;79.90;;;;;;4903050;28;19934;-43
2021/01/03 14:26:40;;;;;;;;;;;5.20;79.80;;;;;;4913334;28;22456;-45
2021/01/03 14:29:08;;;;;;;;;;;5.20;79.90;;;;;;4908541;28;20383;-44
2021/01/03 14:31:35;;;;;;;;;;;5.20;79.80;;;;;;4908935;28;20428;-44
2021/01/03 14:34:12;;;;;;;;;;;5.10;79.90;;;;;;4900550;28;20456;-42
2021/01/03 14:36:39;;;;;;;;;;;5.20;79.90;;;;;;4903145;28;19940;-42
2021/01/03 14:39:07;;;;;;;;;;;5.10;79.80;;;;;;4906901;28;19938;-43
2021/01/03 14:41:34;;;;;;;;;;;5.10;80.00;;;;;;4899336;28;19929;-43
2021/01/03 14:44:02;;;;;;;;;;;5.10;80.00;;;;;;4901275;28;20520;-43
2021/01/03 14:46:34;;;;;;;;;;;5.10;80.10;;;;;;4907812;28;19925;-45